Arnott, Wisconsin
Current Conditions -  °F | °C
As of 10:55 AM on Monday 22 Dec 2014 (Local Time) from KSTE Reporting Station
Haze Haze  
Wind Chill: 26°   Ceiling: 700
Heat Index: 32°   Visibility: 3mi
Dew Point: 31°   Wind: 7mph
Humidity: 94%   Direction: 130°SE
Pressure: 29.81"   Gusts: NA
Location:  44.5531°N, 89.5186°W
Report Text: KSTE 221655Z AUTO 13006KT 3SM BR OVC007 00/M01 A2981 RMK AO2 T00011008
Loading
Personal Weather Stations






























Interactive Weather Map New forecast layout! Learn more

10-Day Weather Forecast

Advertisements
Track Severe Weather on mobile